sensor_id;sensor_type;location;lat;lon;timestamp;pressure;altitude;pressure_sealevel;temperature;humidity
38612;BME280;24368;52.156;20.788;2023-04-02T00:02:30;99466.66;;;7.07;100.00
38612;BME280;24368;52.156;20.788;2023-04-02T00:07:32;99470.98;;;7.07;100.00
38612;BME280;24368;52.156;20.788;2023-04-02T00:12:34;99471.23;;;7.08;100.00
38612;BME280;24368;52.156;20.788;2023-04-02T00:17:36;99474.43;;;7.06;100.00
38612;BME280;24368;52.156;20.788;2023-04-02T00:22:42;99473.80;;;7.04;100.00
38612;BME280;24368;52.156;20.788;2023-04-02T00:27:45;99482.42;;;6.98;100.00
38612;BME280;24368;52.156;20.788;2023-04-02T00:32:47;99484.80;;;6.94;100.00
38612;BME280;24368;52.156;20.788;2023-04-02T00:37:49;99485.48;;;6.96;100.00
38612;BME280;24368;52.156;20.788;2023-04-02T00:42:52;99485.85;;;7.01;100.00
38612;BME280;24368;52.156;20.788;2023-04-02T00:47:56;99486.63;;;7.02;100.00
38612;BME280;24368;52.156;20.788;2023-04-02T00:53:03;99488.05;;;7.00;100.00
38612;BME280;24368;52.156;20.788;2023-04-02T00:58:35;99491.61;;;6.90;100.00
38612;BME280;24368;52.156;20.788;2023-04-02T01:03:37;99494.06;;;6.85;100.00
38612;BME280;24368;52.156;20.788;2023-04-02T01:08:50;99498.44;;;6.89;100.00
38612;BME280;24368;52.156;20.788;2023-04-02T01:25:12;99506.52;;;6.81;100.00
38612;BME280;24368;52.156;20.788;2023-04-02T01:30:18;99505.08;;;6.75;100.00
38612;BME280;24368;52.156;20.788;2023-04-02T01:35:23;99510.86;;;6.73;100.00
38612;BME280;24368;52.156;20.788;2023-04-02T01:45:33;99535.75;;;6.71;100.00
38612;BME280;24368;52.156;20.788;2023-04-02T01:50:36;99535.67;;;6.66;100.00
38612;BME280;24368;52.156;20.788;2023-04-02T01:55:44;99542.42;;;6.61;100.00
38612;BME280;24368;52.156;20.788;2023-04-02T02:00:59;99542.81;;;6.57;100.00
38612;BME280;24368;52.156;20.788;2023-04-02T02:06:02;99548.58;;;6.63;100.00
38612;BME280;24368;52.156;20.788;2023-04-02T02:11:12;99552.42;;;6.67;100.00
38612;BME280;24368;52.156;20.788;2023-04-02T02:16:16;99561.21;;;6.57;100.00
38612;BME280;24368;52.156;20.788;2023-04-02T02:21:43;99564.52;;;6.55;100.00
38612;BME280;24368;52.156;20.788;2023-04-02T02:27:00;99563.91;;;6.49;100.00
38612;BME280;24368;52.156;20.788;2023-04-02T02:32:06;99572.41;;;6.42;100.00
38612;BME280;24368;52.156;20.788;2023-04-02T02:37:25;99573.23;;;6.41;100.00
38612;BME280;24368;52.156;20.788;2023-04-02T02:42:38;99582.17;;;6.47;100.00
38612;BME280;24368;52.156;20.788;2023-04-02T02:47:43;99592.66;;;6.41;100.00
38612;BME280;24368;52.156;20.788;2023-04-02T02:52:51;99593.95;;;6.37;100.00
38612;BME280;24368;52.156;20.788;2023-04-02T02:58:19;99605.48;;;6.28;100.00
38612;BME280;24368;52.156;20.788;2023-04-02T03:03:26;99610.95;;;6.29;100.00
38612;BME280;24368;52.156;20.788;2023-04-02T03:08:33;99616.62;;;6.30;100.00
38612;BME280;24368;52.156;20.788;2023-04-02T03:13:38;99618.03;;;6.36;100.00
38612;BME280;24368;52.156;20.788;2023-04-02T03:18:53;99626.99;;;6.35;100.00
38612;BME280;24368;52.156;20.788;2023-04-02T03:24:02;99633.49;;;6.30;100.00
38612;BME280;24368;52.156;20.788;2023-04-02T03:29:13;99639.73;;;6.21;100.00
38612;BME280;24368;52.156;20.788;2023-04-02T03:34:21;99637.03;;;6.14;100.00
38612;BME280;24368;52.156;20.788;2023-04-02T03:45:14;99651.73;;;6.29;100.00
38612;BME280;24368;52.156;20.788;2023-04-02T03:50:27;99658.35;;;6.31;100.00
38612;BME280;24368;52.156;20.788;2023-04-02T03:55:35;99663.96;;;6.27;100.00
38612;BME280;24368;52.156;20.788;2023-04-02T04:00:43;99667.27;;;6.22;100.00
38612;BME280;24368;52.156;20.788;2023-04-02T04:05:52;99673.30;;;6.07;100.00
38612;BME280;24368;52.156;20.788;2023-04-02T04:10:57;99679.64;;;6.07;100.00
38612;BME280;24368;52.156;20.788;2023-04-02T04:16:11;99685.16;;;6.14;100.00
38612;BME280;24368;52.156;20.788;2023-04-02T04:21:21;99693.45;;;6.15;100.00
38612;BME280;24368;52.156;20.788;2023-04-02T04:37:27;99712.25;;;6.04;100.00
38612;BME280;24368;52.156;20.788;2023-04-02T04:42:35;99714.11;;;6.03;100.00
38612;BME280;24368;52.156;20.788;2023-04-02T04:47:43;99720.66;;;6.02;100.00
38612;BME280;24368;52.156;20.788;2023-04-02T04:52:50;99725.26;;;5.96;100.00
38612;BME280;24368;52.156;20.788;2023-04-02T04:58:03;99738.15;;;5.85;100.00
38612;BME280;24368;52.156;20.788;2023-04-02T05:03:29;99733.66;;;5.76;100.00
38612;BME280;24368;52.156;20.788;2023-04-02T05:08:39;99739.08;;;5.71;100.00
38612;BME280;24368;52.156;20.788;2023-04-02T05:19:06;99754.24;;;5.69;100.00
38612;BME280;24368;52.156;20.788;2023-04-02T05:29:37;99765.83;;;5.64;100.00
38612;BME280;24368;52.156;20.788;2023-04-02T05:34:49;99770.14;;;5.67;100.00
38612;BME280;24368;52.156;20.788;2023-04-02T05:39:59;99780.36;;;5.64;100.00
38612;BME280;24368;52.156;20.788;2023-04-02T05:45:20;99791.10;;;5.57;100.00
38612;BME280;24368;52.156;20.788;2023-04-02T05:50:35;99797.19;;;5.54;100.00
38612;BME280;24368;52.156;20.788;2023-04-02T05:55:47;99801.14;;;5.58;100.00
38612;BME280;24368;52.156;20.788;2023-04-02T06:00:55;99820.06;;;5.54;100.00
38612;BME280;24368;52.156;20.788;2023-04-02T06:06:02;99839.15;;;5.48;100.00
38612;BME280;24368;52.156;20.788;2023-04-02T06:11:12;99845.93;;;5.42;100.00
38612;BME280;24368;52.156;20.788;2023-04-02T06:16:20;99844.54;;;5.36;100.00
38612;BME280;24368;52.156;20.788;2023-04-02T06:21:24;99852.68;;;5.39;100.00
38612;BME280;24368;52.156;20.788;2023-04-02T06:26:37;99863.89;;;5.38;100.00
38612;BME280;24368;52.156;20.788;2023-04-02T06:31:51;99874.90;;;5.34;100.00
38612;BME280;24368;52.156;20.788;2023-04-02T06:36:57;99882.89;;;5.25;100.00
38612;BME280;24368;52.156;20.788;2023-04-02T06:42:05;99885.70;;;5.18;100.00
38612;BME280;24368;52.156;20.788;2023-04-02T06:47:31;99897.48;;;5.24;100.00
38612;BME280;24368;52.156;20.788;2023-04-02T06:52:47;99897.52;;;5.27;100.00
38612;BME280;24368;52.156;20.788;2023-04-02T06:57:50;99901.61;;;5.29;100.00
38612;BME280;24368;52.156;20.788;2023-04-02T07:02:54;99903.98;;;5.27;100.00
38612;BME280;24368;52.156;20.788;2023-04-02T07:07:56;99912.96;;;5.27;100.00
38612;BME280;24368;52.156;20.788;2023-04-02T07:12:58;99921.16;;;5.29;100.00
38612;BME280;24368;52.156;20.788;2023-04-02T07:18:02;99927.10;;;5.31;100.00
38612;BME280;24368;52.156;20.788;2023-04-02T07:23:04;99928.27;;;5.23;100.00
38612;BME280;24368;52.156;20.788;2023-04-02T07:28:21;99938.06;;;5.02;100.00
38612;BME280;24368;52.156;20.788;2023-04-02T07:33:26;99943.78;;;5.05;100.00
38612;BME280;24368;52.156;20.788;2023-04-02T07:38:28;99956.15;;;5.11;100.00
38612;BME280;24368;52.156;20.788;2023-04-02T07:43:30;99958.61;;;5.09;100.00
38612;BME280;24368;52.156;20.788;2023-04-02T07:48:32;99962.30;;;5.04;100.00
38612;BME280;24368;52.156;20.788;2023-04-02T07:53:35;99975.04;;;5.00;100.00
38612;BME280;24368;52.156;20.788;2023-04-02T07:58:39;99984.77;;;4.97;100.00
38612;BME280;24368;52.156;20.788;2023-04-02T08:03:40;99991.80;;;4.88;100.00
38612;BME280;24368;52.156;20.788;2023-04-02T08:08:42;99994.61;;;4.92;100.00
38612;BME280;24368;52.156;20.788;2023-04-02T08:13:45;100000.46;;;4.93;100.00
38612;BME280;24368;52.156;20.788;2023-04-02T08:18:46;100004.03;;;4.85;100.00
38612;BME280;24368;52.156;20.788;2023-04-02T08:23:48;100023.02;;;4.82;100.00
38612;BME280;24368;52.156;20.788;2023-04-02T08:28:50;100050.59;;;4.80;100.00
38612;BME280;24368;52.156;20.788;2023-04-02T08:33:52;100058.84;;;4.75;100.00
38612;BME280;24368;52.156;20.788;2023-04-02T08:38:55;100060.61;;;4.70;100.00
38612;BME280;24368;52.156;20.788;2023-04-02T08:44:03;100060.09;;;4.70;100.00
38612;BME280;24368;52.156;20.788;2023-04-02T08:49:14;100065.85;;;4.72;100.00
38612;BME280;24368;52.156;20.788;2023-04-02T08:54:24;100074.98;;;4.91;100.00
38612;BME280;24368;52.156;20.788;2023-04-02T09:04:30;100080.31;;;5.03;100.00
38612;BME280;24368;52.156;20.788;2023-04-02T09:09:36;100081.17;;;4.96;100.00
38612;BME280;24368;52.156;20.788;2023-04-02T09:14:44;100089.21;;;4.92;100.00
38612;BME280;24368;52.156;20.788;2023-04-02T09:20:00;100091.58;;;4.91;100.00
38612;BME280;24368;52.156;20.788;2023-04-02T09:25:04;100100.23;;;4.96;100.00
38612;BME280;24368;52.156;20.788;2023-04-02T09:30:22;100104.86;;;5.10;100.00
38612;BME280;24368;52.156;20.788;2023-04-02T09:35:29;100104.34;;;5.05;100.00
38612;BME280;24368;52.156;20.788;2023-04-02T09:51:22;100121.59;;;5.00;100.00
38612;BME280;24368;52.156;20.788;2023-04-02T09:56:25;100139.46;;;4.92;100.00
38612;BME280;24368;52.156;20.788;2023-04-02T10:01:44;100147.35;;;4.90;100.00
38612;BME280;24368;52.156;20.788;2023-04-02T10:06:49;100145.23;;;4.88;100.00
38612;BME280;24368;52.156;20.788;2023-04-02T10:11:52;100142.95;;;4.97;100.00
38612;BME280;24368;52.156;20.788;2023-04-02T10:16:59;100149.52;;;5.04;100.00
38612;BME280;24368;52.156;20.788;2023-04-02T10:22:09;100149.96;;;5.11;100.00
38612;BME280;24368;52.156;20.788;2023-04-02T10:27:30;100162.41;;;5.13;100.00
38612;BME280;24368;52.156;20.788;2023-04-02T10:32:43;100173.16;;;5.05;100.00
38612;BME280;24368;52.156;20.788;2023-04-02T10:38:09;100183.67;;;4.90;100.00
38612;BME280;24368;52.156;20.788;2023-04-02T10:59:43;100219.95;;;4.54;100.00
38612;BME280;24368;52.156;20.788;2023-04-02T11:04:48;100226.02;;;4.66;100.00
38612;BME280;24368;52.156;20.788;2023-04-02T11:09:55;100230.86;;;4.60;100.00
38612;BME280;24368;52.156;20.788;2023-04-02T11:14:59;100238.45;;;4.48;100.00
38612;BME280;24368;52.156;20.788;2023-04-02T11:25:41;100257.31;;;4.61;100.00
38612;BME280;24368;52.156;20.788;2023-04-02T11:30:46;100262.08;;;4.55;100.00
38612;BME280;24368;52.156;20.788;2023-04-02T11:35:48;100271.23;;;4.48;100.00
38612;BME280;24368;52.156;20.788;2023-04-02T11:40:59;100277.65;;;4.46;100.00
38612;BME280;24368;52.156;20.788;2023-04-02T11:56:41;100303.47;;;4.39;100.00
38612;BME280;24368;52.156;20.788;2023-04-02T12:01:57;100308.04;;;4.34;100.00
38612;BME280;24368;52.156;20.788;2023-04-02T12:07:27;100306.98;;;4.39;100.00
38612;BME280;24368;52.156;20.788;2023-04-02T12:12:37;100314.98;;;4.53;100.00
38612;BME280;24368;52.156;20.788;2023-04-02T12:17:39;100320.08;;;4.59;100.00
38612;BME280;24368;52.156;20.788;2023-04-02T12:22:50;100323.19;;;4.55;100.00
38612;BME280;24368;52.156;20.788;2023-04-02T12:38:23;100336.13;;;4.48;100.00
38612;BME280;24368;52.156;20.788;2023-04-02T12:43:33;100342.08;;;4.45;100.00
38612;BME280;24368;52.156;20.788;2023-04-02T12:48:38;100347.17;;;4.28;100.00
38612;BME280;24368;52.156;20.788;2023-04-02T12:53:40;100356.30;;;4.30;100.00
38612;BME280;24368;52.156;20.788;2023-04-02T12:58:54;100363.13;;;4.39;100.00
38612;BME280;24368;52.156;20.788;2023-04-02T13:04:09;100374.02;;;4.40;100.00
38612;BME280;24368;52.156;20.788;2023-04-02T13:09:33;100376.82;;;4.38;100.00
38612;BME280;24368;52.156;20.788;2023-04-02T13:14:36;100380.63;;;4.36;100.00
38612;BME280;24368;52.156;20.788;2023-04-02T13:19:38;100383.38;;;4.41;100.00
38612;BME280;24368;52.156;20.788;2023-04-02T13:24:40;100385.66;;;4.46;100.00
38612;BME280;24368;52.156;20.788;2023-04-02T13:29:42;100388.80;;;4.45;100.00
38612;BME280;24368;52.156;20.788;2023-04-02T13:34:44;100398.52;;;4.39;100.00
38612;BME280;24368;52.156;20.788;2023-04-02T13:39:46;100400.38;;;4.33;100.00
38612;BME280;24368;52.156;20.788;2023-04-02T13:44:48;100406.50;;;4.44;100.00
38612;BME280;24368;52.156;20.788;2023-04-02T13:49:50;100405.11;;;4.51;100.00
38612;BME280;24368;52.156;20.788;2023-04-02T13:54:55;100410.63;;;4.55;100.00
38612;BME280;24368;52.156;20.788;2023-04-02T14:00:00;100416.13;;;4.42;100.00
38612;BME280;24368;52.156;20.788;2023-04-02T14:21:28;100447.05;;;4.32;100.00
38612;BME280;24368;52.156;20.788;2023-04-02T14:26:51;100461.27;;;4.18;100.00
38612;BME280;24368;52.156;20.788;2023-04-02T14:32:08;100462.21;;;4.14;100.00
38612;BME280;24368;52.156;20.788;2023-04-02T14:43:02;100474.27;;;4.05;100.00
38612;BME280;24368;52.156;20.788;2023-04-02T14:48:19;100482.12;;;3.97;100.00
38612;BME280;24368;52.156;20.788;2023-04-02T14:53:48;100486.75;;;3.93;100.00
38612;BME280;24368;52.156;20.788;2023-04-02T15:04:58;100497.84;;;3.82;100.00
38612;BME280;24368;52.156;20.788;2023-04-02T15:10:16;100509.32;;;3.75;100.00
38612;BME280;24368;52.156;20.788;2023-04-02T15:15:40;100511.52;;;3.73;100.00
38612;BME280;24368;52.156;20.788;2023-04-02T15:26:19;100530.59;;;3.72;100.00
38612;BME280;24368;52.156;20.788;2023-04-02T15:31:26;100531.49;;;3.56;100.00
38612;BME280;24368;52.156;20.788;2023-04-02T16:08:43;100597.93;;;3.24;100.00
38612;BME280;24368;52.156;20.788;2023-04-02T16:14:08;100605.31;;;3.12;100.00
38612;BME280;24368;52.156;20.788;2023-04-02T16:19:26;100617.49;;;3.10;100.00
38612;BME280;24368;52.156;20.788;2023-04-02T16:24:30;100626.63;;;3.00;100.00
38612;BME280;24368;52.156;20.788;2023-04-02T16:30:32;100633.48;;;2.89;100.00
38612;BME280;24368;52.156;20.788;2023-04-02T16:35:35;100643.26;;;2.93;100.00
38612;BME280;24368;52.156;20.788;2023-04-02T17:07:42;100672.38;;;2.87;100.00
38612;BME280;24368;52.156;20.788;2023-04-02T17:13:10;100682.32;;;2.87;100.00
38612;BME280;24368;52.156;20.788;2023-04-02T17:18:21;100691.42;;;2.94;100.00
38612;BME280;24368;52.156;20.788;2023-04-02T17:23:26;100693.95;;;3.01;100.00
38612;BME280;24368;52.156;20.788;2023-04-02T17:28:31;100704.95;;;3.03;100.00
38612;BME280;24368;52.156;20.788;2023-04-02T17:33:42;100709.33;;;3.00;100.00
38612;BME280;24368;52.156;20.788;2023-04-02T18:06:26;100738.73;;;3.11;100.00
38612;BME280;24368;52.156;20.788;2023-04-02T18:22:05;100744.97;;;3.28;100.00
38612;BME280;24368;52.156;20.788;2023-04-02T18:27:31;100751.27;;;3.36;100.00
38612;BME280;24368;52.156;20.788;2023-04-02T18:32:44;100757.73;;;3.30;100.00
38612;BME280;24368;52.156;20.788;2023-04-02T18:37:58;100765.48;;;3.29;100.00
38612;BME280;24368;52.156;20.788;2023-04-02T18:43:05;100769.30;;;3.32;100.00
38612;BME280;24368;52.156;20.788;2023-04-02T18:48:31;100775.94;;;3.34;100.00
38612;BME280;24368;52.156;20.788;2023-04-02T19:04:56;100796.76;;;3.25;100.00
38612;BME280;24368;52.156;20.788;2023-04-02T19:15:33;100797.83;;;3.27;100.00
38612;BME280;24368;52.156;20.788;2023-04-02T19:20:45;100799.23;;;3.35;100.00
38612;BME280;24368;52.156;20.788;2023-04-02T19:26:00;100811.36;;;3.36;100.00
38612;BME280;24368;52.156;20.788;2023-04-02T19:31:13;100803.53;;;3.36;100.00
38612;BME280;24368;52.156;20.788;2023-04-02T19:41:45;100812.38;;;3.25;100.00
38612;BME280;24368;52.156;20.788;2023-04-02T19:46:49;100825.77;;;3.26;100.00
38612;BME280;24368;52.156;20.788;2023-04-02T19:51:54;100822.02;;;3.33;100.00
38612;BME280;24368;52.156;20.788;2023-04-02T19:56:57;100827.67;;;3.37;100.00
38612;BME280;24368;52.156;20.788;2023-04-02T20:02:00;100829.65;;;3.39;100.00
38612;BME280;24368;52.156;20.788;2023-04-02T20:07:06;100832.69;;;3.35;100.00
38612;BME280;24368;52.156;20.788;2023-04-02T20:12:08;100837.98;;;3.31;100.00
38612;BME280;24368;52.156;20.788;2023-04-02T20:17:10;100843.83;;;3.35;100.00
38612;BME280;24368;52.156;20.788;2023-04-02T20:22:12;100846.41;;;3.38;100.00
38612;BME280;24368;52.156;20.788;2023-04-02T20:27:14;100852.28;;;3.36;100.00
38612;BME280;24368;52.156;20.788;2023-04-02T20:32:15;100856.94;;;3.31;100.00
38612;BME280;24368;52.156;20.788;2023-04-02T20:37:18;100859.71;;;3.26;100.00
38612;BME280;24368;52.156;20.788;2023-04-02T20:42:19;100863.00;;;3.21;100.00
38612;BME280;24368;52.156;20.788;2023-04-02T20:47:21;100866.20;;;3.23;100.00
38612;BME280;24368;52.156;20.788;2023-04-02T20:52:23;100872.86;;;3.28;100.00
38612;BME280;24368;52.156;20.788;2023-04-02T20:57:28;100875.85;;;3.24;100.00
38612;BME280;24368;52.156;20.788;2023-04-02T21:02:31;100880.64;;;3.16;100.00
38612;BME280;24368;52.156;20.788;2023-04-02T21:07:33;100886.86;;;3.15;100.00
38612;BME280;24368;52.156;20.788;2023-04-02T21:12:35;100887.05;;;3.20;100.00
38612;BME280;24368;52.156;20.788;2023-04-02T21:17:37;100897.30;;;3.24;100.00
38612;BME280;24368;52.156;20.788;2023-04-02T21:22:44;100898.47;;;3.15;100.00
38612;BME280;24368;52.156;20.788;2023-04-02T21:27:46;100900.40;;;3.12;100.00
38612;BME280;24368;52.156;20.788;2023-04-02T21:32:51;100898.52;;;3.06;100.00
38612;BME280;24368;52.156;20.788;2023-04-02T21:37:53;100902.19;;;3.03;100.00
38612;BME280;24368;52.156;20.788;2023-04-02T21:42:55;100910.20;;;3.08;100.00
38612;BME280;24368;52.156;20.788;2023-04-02T21:47:56;100916.05;;;3.10;100.00
38612;BME280;24368;52.156;20.788;2023-04-02T21:52:58;100919.07;;;3.06;100.00
38612;BME280;24368;52.156;20.788;2023-04-02T21:58:00;100921.89;;;2.97;100.00
38612;BME280;24368;52.156;20.788;2023-04-02T22:03:02;100925.46;;;2.89;100.00
38612;BME280;24368;52.156;20.788;2023-04-02T22:08:04;100930.51;;;2.86;100.00
38612;BME280;24368;52.156;20.788;2023-04-02T22:13:05;100934.06;;;2.85;100.00
38612;BME280;24368;52.156;20.788;2023-04-02T22:18:07;100941.80;;;2.90;100.00
38612;BME280;24368;52.156;20.788;2023-04-02T22:23:09;100945.57;;;2.91;100.00
38612;BME280;24368;52.156;20.788;2023-04-02T22:28:11;100948.13;;;2.86;100.00
38612;BME280;24368;52.156;20.788;2023-04-02T22:33:13;100954.86;;;2.78;100.00
38612;BME280;24368;52.156;20.788;2023-04-02T22:38:16;100957.83;;;2.72;100.00
38612;BME280;24368;52.156;20.788;2023-04-02T22:43:18;100965.05;;;2.64;99.79
38612;BME280;24368;52.156;20.788;2023-04-02T22:48:20;100970.02;;;2.56;100.00
38612;BME280;24368;52.156;20.788;2023-04-02T22:53:22;100965.91;;;2.52;100.00
38612;BME280;24368;52.156;20.788;2023-04-02T22:58:23;100967.45;;;2.49;100.00
38612;BME280;24368;52.156;20.788;2023-04-02T23:03:26;100970.20;;;2.47;98.58
38612;BME280;24368;52.156;20.788;2023-04-02T23:08:28;100969.42;;;2.51;96.80
38612;BME280;24368;52.156;20.788;2023-04-02T23:13:31;100973.59;;;2.51;95.79
38612;BME280;24368;52.156;20.788;2023-04-02T23:18:34;100976.02;;;2.42;95.30
38612;BME280;24368;52.156;20.788;2023-04-02T23:23:36;100978.70;;;2.32;93.89
38612;BME280;24368;52.156;20.788;2023-04-02T23:28:39;100990.31;;;2.23;93.86
38612;BME280;24368;52.156;20.788;2023-04-02T23:33:41;100991.01;;;2.10;93.70
38612;BME280;24368;52.156;20.788;2023-04-02T23:38:43;100991.88;;;2.04;94.34
38612;BME280;24368;52.156;20.788;2023-04-02T23:43:45;100993.77;;;1.98;94.08
38612;BME280;24368;52.156;20.788;2023-04-02T23:48:47;100996.08;;;1.91;94.64
38612;BME280;24368;52.156;20.788;2023-04-02T23:53:51;100996.80;;;1.81;95.04
38612;BME280;24368;52.156;20.788;2023-04-02T23:58:54;101004.74;;;1.75;94.45
